Terminal Aerodrome Forecast
Issued by NWS

Home | Current Version | Previous Version | Text Only | Print | Product List | Glossary On
Versions: 1 2 3 4 5 6 7 8 9 10 11 12 13 14 15 16
000
FTUS43 KMQT 061923 AAB
TAFCMX
TAF AMD
KCMX 061923Z 0619/0718 27015G20KT P6SM FEW200
     FM062300 26012G18KT P6SM VCTS SCT200CB
     FM070100 26011G16KT P6SM -SHRA BKN130
     FM070300 33014KT P6SM VCSH BKN070 WS010/35045KT
     FM070500 35014KT P6SM VCSH BKN080
     FM070800 34008KT P6SM SCT150
     FM071600 31008KT P6SM SKC=

USA.gov is the U.S. government's official web portal to all federal, state and local government web resources and services.